Terminal Aerodrome Forecast
Issued by NWS

Current Version | Previous Version | Graphics & Text | Print | Product List | Glossary On
Versions: 1 2 3 4 5 6 7 8 9 10 11 12 13 14 15 16 17 18 19 20 21 22 23 24 25 26 27
000
FTUS41 KILN 181800 AAA
TAFLUK
TAF AMD
KLUK 181857Z 1819/1918 33006KT P6SM VCSH BKN035 BKN100
      TEMPO 1819/1821 -SHRA BKN030
     FM190100 00000KT P6SM SCT050
     FM190400 00000KT 4SM BR SCT250
     FM190800 00000KT 1SM BR FEW001 BKN250
     FM191200 VRB03KT 2SM BR BKN250
     FM191400 23004KT P6SM BKN250=

USA.gov is the U.S. government's official web portal to all federal, state and local government web resources and services.